createdAt,value
2022-12-01T00:01:21.918Z,98272.41
2022-12-01T00:03:49.313Z,98260.09
2022-12-01T00:06:26.147Z,98267.88
2022-12-01T00:09:14.155Z,98256.47
2022-12-01T00:11:44.813Z,98266.75
2022-12-01T00:14:11.635Z,98270.34
2022-12-01T00:16:40.543Z,98275.34
2022-12-01T00:19:07.352Z,98271.66
2022-12-01T00:21:33.850Z,98273.19
2022-12-01T00:24:00.393Z,98263.22
2022-12-01T00:26:27.675Z,98270.31
2022-12-01T00:28:57.073Z,98265.59
2022-12-01T00:31:24.655Z,98259.63
2022-12-01T00:33:52.730Z,98264.19
2022-12-01T00:36:19.668Z,98270.69
2022-12-01T00:38:46.682Z,98259.06
2022-12-01T00:41:13.679Z,98256.72
2022-12-01T00:43:40.472Z,98261.00
2022-12-01T00:46:07.142Z,98267.66
2022-12-01T00:48:33.830Z,98254.94
2022-12-01T00:51:00.351Z,98260.19
2022-12-01T00:53:26.935Z,98261.00
2022-12-01T00:55:54.741Z,98259.56
2022-12-01T00:58:25.231Z,98255.44
2022-12-01T01:00:59.998Z,98255.19
2022-12-01T01:03:27.537Z,98252.69
2022-12-01T01:06:04.809Z,98248.56
2022-12-01T01:08:31.298Z,98245.78
2022-12-01T01:10:59.447Z,98253.16
2022-12-01T01:13:26.038Z,98245.78
2022-12-01T01:16:07.111Z,98256.31
2022-12-01T01:18:34.267Z,98253.81
2022-12-01T01:21:04.375Z,98249.81
2022-12-01T01:23:30.888Z,98258.28
2022-12-01T01:26:03.067Z,98259.78
2022-12-01T01:28:30.780Z,98262.69
2022-12-01T01:30:57.380Z,98261.44
2022-12-01T01:33:26.842Z,98259.38
2022-12-01T01:35:55.469Z,98261.47
2022-12-01T01:38:21.964Z,98250.81
2022-12-01T01:40:48.453Z,98265.47
2022-12-01T01:43:18.067Z,98259.66
2022-12-01T01:45:44.711Z,98267.66
2022-12-01T01:48:13.618Z,98271.53
2022-12-01T01:50:40.550Z,98259.09
2022-12-01T01:53:10.300Z,98263.25
2022-12-01T01:55:36.994Z,98256.16
2022-12-01T01:58:06.563Z,98264.41
2022-12-01T02:00:33.167Z,98262.66
2022-12-01T02:03:00.058Z,98270.28
2022-12-01T02:05:33.791Z,98266.28
2022-12-01T02:08:02.320Z,98269.84
2022-12-01T02:11:06.623Z,98269.78
2022-12-01T02:13:50.235Z,98271.44
2022-12-01T02:16:35.522Z,98264.53
2022-12-01T02:19:30.422Z,98267.69
2022-12-01T02:22:17.653Z,98269.22
2022-12-01T02:24:47.186Z,98259.47
2022-12-01T02:27:45.324Z,98261.72
2022-12-01T02:30:18.089Z,98264.81
2022-12-01T02:32:59.784Z,98262.50
2022-12-01T02:35:52.456Z,98259.16
2022-12-01T02:38:24.902Z,98263.19
2022-12-01T02:41:16.813Z,98258.16
2022-12-01T02:44:04.974Z,98261.31
2022-12-01T02:46:39.524Z,98243.34
2022-12-01T02:49:15.616Z,98254.97
2022-12-01T02:51:44.841Z,98254.56
2022-12-01T02:54:14.675Z,98249.84
2022-12-01T02:56:44.681Z,98242.25
2022-12-01T02:59:12.805Z,98253.47
2022-12-01T03:02:04.271Z,98245.91
2022-12-01T03:05:05.994Z,98257.53
2022-12-01T03:07:57.573Z,98249.53
2022-12-01T03:10:45.952Z,98247.72
2022-12-01T03:13:22.255Z,98250.38
2022-12-01T03:15:56.460Z,98247.00
2022-12-01T03:18:41.261Z,98248.78
2022-12-01T03:21:07.693Z,98259.31
2022-12-01T03:23:39.652Z,98250.06
2022-12-01T03:26:09.519Z,98248.56
2022-12-01T03:28:48.766Z,98249.34
2022-12-01T03:31:20.214Z,98249.63
2022-12-01T03:33:52.266Z,98250.06
2022-12-01T03:36:40.063Z,98249.13
2022-12-01T03:39:15.046Z,98247.63
2022-12-01T03:41:46.332Z,98244.31
2022-12-01T03:44:29.571Z,98245.84
2022-12-01T03:47:06.068Z,98244.25
2022-12-01T03:49:36.878Z,98245.56
2022-12-01T03:52:37.531Z,98246.41
2022-12-01T03:55:23.723Z,98240.31
2022-12-01T03:58:04.030Z,98246.69
2022-12-01T04:00:36.329Z,98243.78
2022-12-01T04:03:06.611Z,98245.84
2022-12-01T04:05:36.314Z,98240.47
2022-12-01T04:08:05.841Z,98247.16
2022-12-01T04:10:34.076Z,98236.63
2022-12-01T04:13:00.920Z,98234.00
2022-12-01T04:15:28.041Z,98236.91
2022-12-01T04:17:54.657Z,98241.06
2022-12-01T04:20:21.721Z,98244.94
2022-12-01T04:22:49.073Z,98240.78
2022-12-01T04:25:16.014Z,98230.53
2022-12-01T04:27:42.552Z,98247.16
2022-12-01T04:30:09.924Z,98248.78
2022-12-01T04:32:40.507Z,98245.38
2022-12-01T04:35:08.720Z,98247.84
2022-12-01T04:37:39.233Z,98252.44
2022-12-01T04:40:09.414Z,98242.19
2022-12-01T04:42:38.935Z,98246.78
2022-12-01T04:45:09.320Z,98255.06
2022-12-01T04:47:36.826Z,98251.75
2022-12-01T04:50:03.569Z,98248.28
2022-12-01T04:52:35.095Z,98253.00
2022-12-01T04:55:03.476Z,98253.84
2022-12-01T04:57:29.990Z,98248.84
2022-12-01T04:59:56.461Z,98246.22
2022-12-01T05:02:23.024Z,98244.81
2022-12-01T05:04:49.568Z,98254.81
2022-12-01T05:07:16.224Z,98250.66
2022-12-01T05:09:42.794Z,98253.28
2022-12-01T05:12:09.332Z,98254.00
2022-12-01T05:14:38.192Z,98251.38
2022-12-01T05:17:04.665Z,98249.53
2022-12-01T05:19:49.740Z,98253.28
2022-12-01T05:22:16.351Z,98255.91
2022-12-01T05:24:42.880Z,98251.19
2022-12-01T05:27:09.379Z,98251.44
2022-12-01T05:29:35.898Z,98249.63
2022-12-01T05:32:03.788Z,98247.16
2022-12-01T05:34:30.644Z,98259.97
2022-12-01T05:36:57.164Z,98248.00
2022-12-01T05:39:23.689Z,98265.84
2022-12-01T05:41:50.175Z,98257.00
2022-12-01T05:44:16.800Z,98266.97
2022-12-01T05:46:43.377Z,98268.50
2022-12-01T05:49:09.859Z,98264.06
2022-12-01T05:51:36.454Z,98262.28
2022-12-01T05:54:03.140Z,98267.38
2022-12-01T05:56:29.763Z,98260.88
2022-12-01T05:58:56.246Z,98258.25
2022-12-01T06:01:26.845Z,98257.97
2022-12-01T06:03:54.374Z,98264.91
2022-12-01T06:06:20.941Z,98265.03
2022-12-01T06:08:47.451Z,98271.69
2022-12-01T06:11:14.067Z,98271.69
2022-12-01T06:13:40.648Z,98258.53
2022-12-01T06:16:10.238Z,98255.59
2022-12-01T06:18:41.358Z,98257.69
2022-12-01T06:21:10.644Z,98251.88
2022-12-01T06:23:39.468Z,98260.72
2022-12-01T06:26:05.989Z,98250.25
2022-12-01T06:28:32.485Z,98254.41
2022-12-01T06:31:03.108Z,98250.38
2022-12-01T06:33:30.147Z,98252.72
2022-12-01T06:36:00.718Z,98259.78
2022-12-01T06:38:30.360Z,98257.31
2022-12-01T06:40:56.851Z,98258.53
2022-12-01T06:43:23.349Z,98257.75
2022-12-01T06:45:49.878Z,98249.97
2022-12-01T06:48:16.594Z,98251.22
2022-12-01T06:50:43.313Z,98256.47
2022-12-01T06:53:10.771Z,98251.22
2022-12-01T06:55:41.055Z,98260.34
2022-12-01T06:58:10.669Z,98260.75
2022-12-01T07:00:39.376Z,98263.53
2022-12-01T07:03:05.855Z,98266.59
2022-12-01T07:05:32.368Z,98257.16
2022-12-01T07:07:59.869Z,98269.63
2022-12-01T07:10:27.763Z,98270.19
2022-12-01T07:12:57.141Z,98270.34
2022-12-01T07:15:24.438Z,98280.56
2022-12-01T07:17:51.307Z,98284.84
2022-12-01T07:20:18.180Z,98283.44
2022-12-01T07:22:44.970Z,98284.41
2022-12-01T07:25:11.923Z,98287.47
2022-12-01T07:27:41.953Z,98286.50
2022-12-01T07:30:11.272Z,98292.91
2022-12-01T07:32:41.125Z,98295.63
2022-12-01T07:35:12.092Z,98301.84
2022-12-01T07:37:41.573Z,98301.41
2022-12-01T07:40:11.904Z,98299.66
2022-12-01T07:42:42.103Z,98297.19
2022-12-01T07:45:12.047Z,98298.41
2022-12-01T07:47:40.022Z,98291.22
2022-12-01T07:50:09.251Z,98300.13
2022-12-01T07:52:35.967Z,98306.19
2022-12-01T07:55:02.509Z,98307.97
2022-12-01T07:57:29.003Z,98312.09
2022-12-01T07:59:55.587Z,98308.19
2022-12-01T08:02:22.209Z,98312.22
2022-12-01T08:04:48.753Z,98319.94
2022-12-01T08:07:15.271Z,98325.91
2022-12-01T08:09:41.769Z,98322.81
2022-12-01T08:12:11.855Z,98320.72
2022-12-01T08:14:41.502Z,98321.81
2022-12-01T08:17:11.605Z,98325.59
2022-12-01T08:19:41.164Z,98321.56
2022-12-01T08:22:10.325Z,98323.66
2022-12-01T08:24:38.975Z,98322.97
2022-12-01T08:27:05.492Z,98332.28
2022-12-01T08:29:32.113Z,98327.16
2022-12-01T08:31:58.911Z,98332.88
2022-12-01T08:34:25.542Z,98333.97
2022-12-01T08:36:52.073Z,98336.19
2022-12-01T08:39:18.578Z,98338.81
2022-12-01T08:41:45.126Z,98339.81
2022-12-01T08:44:11.729Z,98339.84
2022-12-01T08:46:41.142Z,98354.41
2022-12-01T08:49:11.812Z,98339.00
2022-12-01T08:51:41.975Z,98340.97
2022-12-01T08:54:12.596Z,98340.19
2022-12-01T08:56:44.383Z,98344.84
2022-12-01T08:59:11.129Z,98343.81
2022-12-01T09:01:52.532Z,98345.13
2022-12-01T09:04:20.870Z,98348.28
2022-12-01T09:06:49.473Z,98353.56
2022-12-01T09:09:21.257Z,98348.56
2022-12-01T09:11:49.082Z,98342.69
2022-12-01T09:14:17.235Z,98348.16
2022-12-01T09:16:45.352Z,98348.97
2022-12-01T09:19:13.577Z,98346.34
2022-12-01T09:21:42.663Z,98351.47
2022-12-01T09:24:11.396Z,98361.59
2022-12-01T09:26:42.237Z,98353.44
2022-12-01T09:29:13.772Z,98362.50
2022-12-01T09:31:41.531Z,98360.59
2022-12-01T09:34:14.862Z,98363.38
2022-12-01T09:36:41.841Z,98361.41
2022-12-01T09:39:13.850Z,98366.03
2022-12-01T09:42:13.098Z,98362.13
2022-12-01T09:44:42.556Z,98364.66
2022-12-01T09:47:19.432Z,98359.38
2022-12-01T09:49:56.558Z,98365.09
2022-12-01T09:52:25.551Z,98361.75
2022-12-01T09:54:55.187Z,98368.53
2022-12-01T09:57:39.903Z,98366.75
2022-12-01T10:00:19.955Z,98368.28
2022-12-01T10:03:15.130Z,98356.94
2022-12-01T10:06:26.797Z,98357.34
2022-12-01T10:08:51.233Z,98358.47
2022-12-01T10:11:26.950Z,98360.84
2022-12-01T10:13:53.866Z,98351.69
2022-12-01T10:16:27.996Z,98347.09
2022-12-01T10:19:22.323Z,98352.81
2022-12-01T10:22:09.097Z,98347.84
2022-12-01T10:24:56.154Z,98343.00
2022-12-01T10:28:01.625Z,98346.22
2022-12-01T10:30:28.337Z,98338.31
2022-12-01T10:33:25.589Z,98338.44
2022-12-01T10:35:53.037Z,98330.81
2022-12-01T10:38:25.884Z,98336.91
2022-12-01T10:40:53.666Z,98340.09
2022-12-01T10:43:32.599Z,98334.41
2022-12-01T10:46:02.603Z,98341.34
2022-12-01T10:48:29.300Z,98335.50
2022-12-01T10:51:13.647Z,98340.50
2022-12-01T10:53:40.187Z,98336.81
2022-12-01T10:56:12.844Z,98340.13
2022-12-01T10:59:00.224Z,98333.19
2022-12-01T11:01:41.253Z,98336.94
2022-12-01T11:04:50.972Z,98334.72
2022-12-01T11:07:32.232Z,98327.94
2022-12-01T11:10:02.615Z,98320.03
2022-12-01T11:12:30.186Z,98322.09
2022-12-01T11:14:57.766Z,98310.75
2022-12-01T11:17:41.748Z,98316.81
2022-12-01T11:20:35.210Z,98315.31
2022-12-01T11:23:17.669Z,98318.78
2022-12-01T11:26:08.963Z,98316.44
2022-12-01T11:28:41.319Z,98312.41
2022-12-01T11:31:12.127Z,98312.13
2022-12-01T11:33:52.305Z,98313.50
2022-12-01T11:36:28.011Z,98303.53
2022-12-01T11:39:01.511Z,98307.84
2022-12-01T11:41:40.780Z,98307.13
2022-12-01T11:47:32.055Z,98301.69
2022-12-01T11:50:01.971Z,98293.66
2022-12-01T11:52:45.451Z,98282.38
2022-12-01T11:55:20.750Z,98292.25
2022-12-01T11:57:50.070Z,98288.22
2022-12-01T12:00:29.157Z,98294.09
2022-12-01T12:03:31.293Z,98294.44
2022-12-01T12:06:18.175Z,98293.06
2022-12-01T12:09:14.631Z,98288.34
2022-12-01T12:12:00.938Z,98297.03
2022-12-01T12:14:50.834Z,98277.44
2022-12-01T12:17:52.879Z,98291.06
2022-12-01T12:20:31.514Z,98299.59
2022-12-01T12:23:52.302Z,98293.28
2022-12-01T12:26:29.935Z,98295.97
2022-12-01T12:29:34.266Z,98287.38
2022-12-01T12:32:24.808Z,98281.56
2022-12-01T12:35:03.388Z,98289.97
2022-12-01T12:37:58.987Z,98298.31
2022-12-01T12:40:42.141Z,98297.78
2022-12-01T12:43:21.977Z,98294.94
2022-12-01T12:46:42.308Z,98296.22
2022-12-01T12:49:28.892Z,98285.91
2022-12-01T12:52:16.706Z,98292.59
2022-12-01T12:54:52.362Z,98287.78
2022-12-01T12:57:32.988Z,98293.59
2022-12-01T13:00:05.766Z,98290.03
2022-12-01T13:02:45.058Z,98287.03
2022-12-01T13:05:41.603Z,98287.59
2022-12-01T13:08:20.989Z,98286.56
2022-12-01T13:11:13.305Z,98282.81
2022-12-01T13:13:51.282Z,98289.47
2022-12-01T13:16:22.331Z,98288.13
2022-12-01T13:19:04.993Z,98286.53
2022-12-01T13:21:42.120Z,98278.41
2022-12-01T13:24:18.516Z,98279.53
2022-12-01T13:26:53.043Z,98276.19
2022-12-01T13:29:23.710Z,98274.97
2022-12-01T13:31:52.249Z,98278.16
2022-12-01T13:34:22.779Z,98279.97
2022-12-01T13:36:51.699Z,98282.19
2022-12-01T13:39:27.801Z,98276.53
2022-12-01T13:42:21.379Z,98267.09
2022-12-01T13:44:58.323Z,98267.78
2022-12-01T13:47:24.828Z,98273.59
2022-12-01T13:49:53.285Z,98266.81
2022-12-01T13:52:22.924Z,98264.06
2022-12-01T13:55:07.884Z,98266.44
2022-12-01T13:57:38.645Z,98264.78
2022-12-01T14:00:27.271Z,98267.00
2022-12-01T14:03:14.358Z,98265.06
2022-12-01T14:05:53.377Z,98274.13
2022-12-01T14:08:30.802Z,98268.59
2022-12-01T14:11:20.281Z,98260.41
2022-12-01T14:14:26.064Z,98265.66
2022-12-01T14:17:02.617Z,98257.34
2022-12-01T14:19:52.293Z,98260.94
2022-12-01T14:22:38.454Z,98262.19
2022-12-01T14:25:30.715Z,98262.47
2022-12-01T14:28:02.651Z,98256.09
2022-12-01T14:30:45.995Z,98261.63
2022-12-01T14:33:51.154Z,98259.97
2022-12-01T14:36:24.309Z,98257.91
2022-12-01T14:38:57.364Z,98265.41
2022-12-01T14:41:27.135Z,98260.28
2022-12-01T14:44:14.019Z,98258.19
2022-12-01T14:46:51.455Z,98258.63
2022-12-01T14:49:24.071Z,98249.31
2022-12-01T14:51:58.768Z,98257.06
2022-12-01T14:54:30.457Z,98259.56
2022-12-01T14:57:06.227Z,98262.19
2022-12-01T14:59:35.462Z,98263.59
2022-12-01T15:02:09.564Z,98257.94
2022-12-01T15:05:06.523Z,98255.97
2022-12-01T15:07:42.994Z,98256.25
2022-12-01T15:10:23.694Z,98253.22
2022-12-01T15:12:51.893Z,98258.47
2022-12-01T15:15:23.654Z,98259.69
2022-12-01T15:17:52.466Z,98246.13
2022-12-01T15:20:29.959Z,98254.03
2022-12-01T15:22:58.523Z,98259.97
2022-12-01T15:25:29.397Z,98259.69
2022-12-01T15:28:09.434Z,98254.44
2022-12-01T15:30:36.409Z,98247.66
2022-12-01T15:33:03.962Z,98250.69
2022-12-01T15:35:30.749Z,98253.59
2022-12-01T15:37:57.715Z,98256.13
2022-12-01T15:41:00.137Z,98248.47
2022-12-01T15:43:23.706Z,98250.13
2022-12-01T15:45:58.716Z,98255.41
2022-12-01T15:48:29.941Z,98256.91
2022-12-01T15:51:13.854Z,98248.63
2022-12-01T15:54:03.879Z,98253.06
2022-12-01T15:56:38.285Z,98256.53
2022-12-01T15:59:13.538Z,98254.44
2022-12-01T16:01:45.036Z,98264.69
2022-12-01T16:04:21.608Z,98249.97
2022-12-01T16:07:10.398Z,98244.72
2022-12-01T16:09:58.535Z,98252.63
2022-12-01T16:12:29.465Z,98251.94
2022-12-01T16:15:06.870Z,98252.88
2022-12-01T16:17:51.443Z,98251.59
2022-12-01T16:20:34.119Z,98252.88
2022-12-01T16:23:11.463Z,98260.63
2022-12-01T16:25:44.005Z,98258.81
2022-12-01T16:28:36.627Z,98258.16
2022-12-01T16:31:12.627Z,98259.09
2022-12-01T16:33:43.558Z,98260.50
2022-12-01T16:36:10.244Z,98257.72
2022-12-01T16:38:36.921Z,98262.69
2022-12-01T16:41:16.193Z,98261.31
2022-12-01T16:44:05.778Z,98256.19
2022-12-01T16:46:34.370Z,98256.75
2022-12-01T16:49:01.271Z,98255.91
2022-12-01T16:51:35.538Z,98259.94
2022-12-01T16:54:14.979Z,98257.03
2022-12-01T16:56:46.939Z,98249.34
2022-12-01T16:59:19.329Z,98266.25
2022-12-01T17:01:46.101Z,98255.44
2022-12-01T17:04:13.763Z,98255.44
2022-12-01T17:06:50.208Z,98263.41
2022-12-01T17:09:16.935Z,98269.91
2022-12-01T17:11:49.160Z,98267.16
2022-12-01T17:14:15.774Z,98268.78
2022-12-01T17:16:43.661Z,98277.34
2022-12-01T17:19:13.609Z,98273.47
2022-12-01T17:21:41.144Z,98264.75
2022-12-01T17:24:09.457Z,98268.91
2022-12-01T17:26:36.426Z,98265.59
2022-12-01T17:29:03.507Z,98275.44
2022-12-01T17:31:30.327Z,98274.59
2022-12-01T17:33:57.269Z,98283.19
2022-12-01T17:36:23.937Z,98285.00
2022-12-01T17:38:51.041Z,98279.13
2022-12-01T17:41:27.016Z,98279.56
2022-12-01T17:43:53.775Z,98277.91
2022-12-01T17:46:20.650Z,98272.91
2022-12-01T17:48:48.878Z,98277.91
2022-12-01T17:51:17.320Z,98277.78
2022-12-01T17:53:46.320Z,98276.69
2022-12-01T17:56:17.568Z,98286.50
2022-12-01T17:58:44.858Z,98277.34
2022-12-01T18:01:19.690Z,98278.88
2022-12-01T18:03:47.290Z,98278.41
2022-12-01T18:06:14.568Z,98283.66
2022-12-01T18:08:45.189Z,98287.22
2022-12-01T18:11:17.132Z,98282.03
2022-12-01T18:13:49.155Z,98287.34
2022-12-01T18:16:25.452Z,98278.53
2022-12-01T18:18:53.014Z,98282.31
2022-12-01T18:21:22.579Z,98285.09
2022-12-01T18:24:15.909Z,98283.03
2022-12-01T18:26:44.489Z,98288.41
2022-12-01T18:29:23.827Z,98293.66
2022-12-01T18:31:50.410Z,98300.63
2022-12-01T18:34:17.175Z,98295.59
2022-12-01T18:36:44.045Z,98300.72
2022-12-01T18:39:13.702Z,98296.44
2022-12-01T18:41:43.665Z,98298.34
2022-12-01T18:44:13.482Z,98306.31
2022-12-01T18:46:43.219Z,98299.69
2022-12-01T18:49:17.775Z,98301.44
2022-12-01T18:51:44.747Z,98311.72
2022-12-01T18:54:14.779Z,98303.91
2022-12-01T18:56:43.089Z,98296.81
2022-12-01T18:59:12.453Z,98302.00
2022-12-01T19:01:43.915Z,98299.56
2022-12-01T19:04:13.178Z,98300.25
2022-12-01T19:06:42.890Z,98303.47
2022-12-01T19:09:16.263Z,98305.25
2022-12-01T19:11:46.311Z,98302.53
2022-12-01T19:14:18.002Z,98294.84
2022-12-01T19:16:45.643Z,98287.41
2022-12-01T19:19:13.970Z,98280.09
2022-12-01T19:21:44.314Z,98287.56
2022-12-01T19:24:13.639Z,98290.28
2022-12-01T19:26:49.405Z,98283.16
2022-12-01T19:29:16.912Z,98290.88
2022-12-01T19:31:45.292Z,98293.03
2022-12-01T19:34:12.981Z,98293.88
2022-12-01T19:36:39.663Z,98296.13
2022-12-01T19:39:07.837Z,98292.25
2022-12-01T19:41:34.936Z,98292.03
2022-12-01T19:44:01.769Z,98291.75
2022-12-01T19:46:28.859Z,98290.88
2022-12-01T19:49:03.013Z,98290.78
2022-12-01T19:51:34.937Z,98287.25
2022-12-01T19:54:02.298Z,98290.41
2022-12-01T19:56:29.427Z,98287.09
2022-12-01T19:58:57.209Z,98283.56
2022-12-01T20:01:24.342Z,98284.72
2022-12-01T20:03:52.917Z,98285.53
2022-12-01T20:06:28.685Z,98290.88
2022-12-01T20:08:57.460Z,98294.25
2022-12-01T20:11:24.575Z,98287.34
2022-12-01T20:13:52.045Z,98288.44
2022-12-01T20:16:21.161Z,98295.88
2022-12-01T20:18:48.924Z,98290.31
2022-12-01T20:21:21.604Z,98298.78
2022-12-01T20:24:08.150Z,98296.69
2022-12-01T20:26:38.443Z,98296.84
2022-12-01T20:29:08.309Z,98298.09
2022-12-01T20:31:35.725Z,98311.56
2022-12-01T20:34:07.825Z,98309.28
2022-12-01T20:36:35.517Z,98303.75
2022-12-01T20:39:02.453Z,98317.03
2022-12-01T20:41:29.094Z,98312.66
2022-12-01T20:43:55.584Z,98303.81
2022-12-01T20:46:22.458Z,98303.03
2022-12-01T20:48:49.350Z,98308.13
2022-12-01T20:51:20.215Z,98306.72
2022-12-01T20:54:12.430Z,98304.34
2022-12-01T20:56:37.478Z,98306.50
2022-12-01T20:59:04.051Z,98304.97
2022-12-01T21:01:30.638Z,98308.28
2022-12-01T21:03:57.178Z,98312.22
2022-12-01T21:06:24.071Z,98315.34
2022-12-01T21:08:51.376Z,98317.59
2022-12-01T21:11:47.050Z,98311.97
2022-12-01T21:14:22.349Z,98305.59
2022-12-01T21:16:52.028Z,98317.53
2022-12-01T21:19:26.762Z,98310.94
2022-12-01T21:21:53.251Z,98315.13
2022-12-01T21:24:22.365Z,98312.13
2022-12-01T21:26:59.995Z,98313.44
2022-12-01T21:29:36.957Z,98314.38
2022-12-01T21:32:12.748Z,98308.13
2022-12-01T21:34:39.419Z,98306.56
2022-12-01T21:37:20.362Z,98305.56
2022-12-01T21:39:50.848Z,98297.41
2022-12-01T21:42:22.811Z,98303.13
2022-12-01T21:44:49.708Z,98296.25
2022-12-01T21:47:30.101Z,98291.69
2022-12-01T21:49:58.349Z,98289.72
2022-12-01T21:52:39.159Z,98291.84
2022-12-01T21:55:33.167Z,98299.44
2022-12-01T21:57:59.732Z,98299.91
2022-12-01T22:00:32.217Z,98300.91
2022-12-01T22:03:22.789Z,98298.44
2022-12-01T22:06:13.718Z,98293.56
2022-12-01T22:08:40.526Z,98298.44
2022-12-01T22:11:26.165Z,98292.81
2022-12-01T22:13:53.564Z,98296.72
2022-12-01T22:16:33.952Z,98292.66
2022-12-01T22:19:38.781Z,98304.91
2022-12-01T22:22:11.853Z,98305.06
2022-12-01T22:24:42.571Z,98303.41
2022-12-01T22:27:28.068Z,98300.91
2022-12-01T22:30:19.371Z,98310.09
2022-12-01T22:33:14.983Z,98295.97
2022-12-01T22:35:50.940Z,98301.63
2022-12-01T22:38:30.319Z,98302.44
2022-12-01T22:41:14.610Z,98297.91
2022-12-01T22:44:00.353Z,98294.13
2022-12-01T22:46:35.877Z,98299.22
2022-12-01T22:49:13.713Z,98297.19
2022-12-01T22:51:45.223Z,98295.38
2022-12-01T22:54:14.938Z,98300.25
2022-12-01T22:56:44.634Z,98291.22
2022-12-01T22:59:24.664Z,98296.38
2022-12-01T23:01:56.407Z,98291.50
2022-12-01T23:04:37.919Z,98289.44
2022-12-01T23:07:26.513Z,98286.16
2022-12-01T23:09:54.035Z,98287.97
2022-12-01T23:12:32.082Z,98289.41
2022-12-01T23:15:07.827Z,98289.41
2022-12-01T23:17:37.135Z,98278.16
2022-12-01T23:20:28.100Z,98282.88
2022-12-01T23:23:00.219Z,98270.88
2022-12-01T23:25:27.549Z,98280.38
2022-12-01T23:27:57.746Z,98264.09
2022-12-01T23:30:24.334Z,98274.38
2022-12-01T23:33:17.384Z,98264.34
2022-12-01T23:35:57.820Z,98268.78
2022-12-01T23:38:29.581Z,98262.03
2022-12-01T23:41:00.573Z,98262.56
2022-12-01T23:43:34.700Z,98259.91
2022-12-01T23:46:11.637Z,98254.97
2022-12-01T23:48:44.841Z,98248.69
2022-12-01T23:51:20.411Z,98251.53
2022-12-01T23:53:47.351Z,98249.81
2022-12-01T23:56:19.667Z,98243.97
2022-12-01T23:58:47.055Z,98232.81
